createdAt,value
2019-03-02T00:00:44.525Z,38.73
2019-03-02T00:03:12.095Z,39.07
2019-03-02T00:05:40.322Z,38.37
2019-03-02T00:08:07.880Z,41.33
2019-03-02T00:10:36.945Z,40.43
2019-03-02T00:13:07.412Z,41.17
2019-03-02T00:15:33.860Z,39.37
2019-03-02T00:18:08.697Z,42.23
2019-03-02T00:20:36.332Z,42.13
2019-03-02T00:23:22.151Z,41.37
2019-03-02T00:29:02.054Z,40.83
2019-03-02T00:34:38.158Z,40.87
2019-03-02T00:40:13.723Z,42.33
2019-03-02T00:42:41.302Z,40.07
2019-03-02T00:45:10.681Z,44.13
2019-03-02T00:47:52.816Z,43.37
2019-03-02T00:50:20.319Z,42.30
2019-03-02T00:52:48.341Z,45.33
2019-03-02T00:55:16.089Z,42.17
2019-03-02T00:57:43.854Z,47.17
2019-03-02T01:00:15.392Z,45.13
2019-03-02T01:02:42.005Z,46.10
2019-03-02T01:05:09.666Z,44.10
2019-03-02T01:07:38.831Z,42.43
2019-03-02T01:10:08.181Z,43.37
2019-03-02T01:12:35.625Z,44.57
2019-03-02T01:15:12.729Z,45.30
2019-03-02T01:17:40.593Z,46.20
2019-03-02T01:20:08.886Z,45.17
2019-03-02T01:22:37.073Z,46.40
2019-03-02T01:25:05.196Z,46.93
2019-03-02T01:27:35.052Z,49.23
2019-03-02T01:30:02.015Z,46.43
2019-03-02T01:32:29.566Z,45.93
2019-03-02T01:34:58.522Z,46.50
2019-03-02T01:37:25.985Z,46.40
2019-03-02T01:39:53.565Z,46.10
2019-03-02T01:42:21.133Z,47.90
2019-03-02T01:44:51.750Z,46.40
2019-03-02T01:47:18.464Z,47.43
2019-03-02T01:49:47.025Z,46.33
2019-03-02T01:52:14.495Z,47.67
2019-03-02T01:54:41.942Z,46.40
2019-03-02T01:57:09.488Z,47.67
2019-03-02T01:59:38.670Z,49.17
2019-03-02T02:02:06.704Z,46.07
2019-03-02T02:04:34.469Z,46.20
2019-03-02T02:07:02.326Z,48.50
2019-03-02T02:09:30.352Z,50.23
2019-03-02T02:11:57.931Z,50.47
2019-03-02T02:14:25.540Z,47.37
2019-03-02T02:16:53.445Z,47.87
2019-03-02T02:19:21.465Z,50.55
2019-03-02T02:21:49.155Z,48.00
2019-03-02T02:24:16.604Z,46.60
2019-03-02T02:26:46.886Z,47.77
2019-03-02T02:29:13.485Z,49.80
2019-03-02T02:31:45.116Z,45.53
2019-03-02T02:34:10.359Z,47.17
2019-03-02T02:36:37.934Z,47.33
2019-03-02T02:39:06.255Z,46.77
2019-03-02T02:41:34.177Z,48.20
2019-03-02T02:44:02.126Z,48.93
2019-03-02T02:46:32.494Z,44.97
2019-03-02T02:48:59.025Z,47.97
2019-03-02T02:51:26.600Z,49.83
2019-03-02T02:53:54.265Z,47.63
2019-03-02T02:56:22.212Z,48.57
2019-03-02T02:58:55.276Z,43.87
2019-03-02T03:01:19.284Z,44.07
2019-03-02T03:03:46.878Z,44.87
2019-03-02T03:06:14.702Z,44.60
2019-03-02T03:08:43.107Z,42.00
2019-03-02T03:11:11.264Z,44.10
2019-03-02T03:13:40.793Z,44.63
2019-03-02T03:16:11.492Z,42.13
2019-03-02T03:18:40.618Z,46.70
2019-03-02T03:21:08.135Z,43.93
2019-03-02T03:23:35.710Z,44.13
2019-03-02T03:26:03.574Z,43.83
2019-03-02T03:28:32.966Z,44.13
2019-03-02T03:31:00.634Z,43.70
2019-03-02T03:33:41.702Z,44.30
2019-03-02T03:35:57.790Z,43.33
2019-03-02T03:38:29.455Z,44.63
2019-03-02T03:41:00.230Z,43.73
2019-03-02T03:43:25.059Z,45.27
2019-03-02T03:45:52.605Z,42.53
2019-03-02T03:48:20.170Z,43.70
2019-03-02T03:50:48.028Z,43.40
2019-03-02T03:53:17.363Z,44.83
2019-03-02T03:55:44.897Z,41.47
2019-03-02T03:58:13.087Z,40.90
2019-03-02T04:00:40.651Z,41.03
2019-03-02T04:03:08.899Z,42.93
2019-03-02T04:05:42.266Z,42.43
2019-03-02T04:08:08.325Z,42.40
2019-03-02T04:10:35.880Z,41.93
2019-03-02T04:13:04.848Z,43.17
2019-03-02T04:15:40.720Z,42.47
2019-03-02T04:18:04.286Z,39.83
2019-03-02T04:20:33.654Z,40.20
2019-03-02T04:23:02.318Z,39.40
2019-03-02T04:25:30.202Z,37.67
2019-03-02T04:27:57.756Z,36.20
2019-03-02T04:30:30.398Z,38.40
2019-03-02T04:32:55.029Z,36.90
2019-03-02T04:35:22.593Z,37.03
2019-03-02T04:37:50.162Z,35.40
2019-03-02T04:40:18.001Z,35.10
2019-03-02T04:42:46.553Z,32.90
2019-03-02T04:45:15.091Z,32.90
2019-03-02T04:47:43.011Z,31.97
2019-03-02T04:50:10.826Z,31.20
2019-03-02T04:52:38.869Z,30.37
2019-03-02T04:55:09.385Z,28.93
2019-03-02T04:57:36.378Z,29.20
2019-03-02T05:00:06.443Z,28.40
2019-03-02T05:02:33.904Z,27.80
2019-03-02T05:05:04.863Z,28.97
2019-03-02T05:07:31.035Z,27.90
2019-03-02T05:09:58.929Z,28.27
2019-03-02T05:12:26.429Z,27.27
2019-03-02T05:14:54.010Z,26.47
2019-03-02T05:17:21.667Z,26.93
2019-03-02T05:19:49.226Z,24.37
2019-03-02T05:22:18.750Z,25.40
2019-03-02T05:24:46.541Z,24.33
2019-03-02T05:27:14.497Z,24.63
2019-03-02T05:29:41.988Z,23.97
2019-03-02T05:32:12.618Z,23.40
2019-03-02T05:34:39.712Z,23.03
2019-03-02T05:37:07.373Z,24.17
2019-03-02T05:39:35.139Z,23.60
2019-03-02T05:42:02.684Z,24.37
2019-03-02T05:44:30.252Z,23.20
2019-03-02T05:47:01.355Z,22.67
2019-03-02T05:49:27.170Z,24.27
2019-03-02T05:51:55.134Z,22.53
2019-03-02T05:54:23.798Z,23.07
2019-03-02T05:56:51.587Z,22.77
2019-03-02T05:59:22.807Z,23.93
2019-03-02T06:01:48.804Z,22.03
2019-03-02T06:04:18.764Z,21.27
2019-03-02T06:06:58.358Z,22.43
2019-03-02T06:09:26.248Z,21.83
2019-03-02T06:11:53.813Z,22.27
2019-03-02T06:14:22.527Z,23.00
2019-03-02T06:16:50.085Z,22.00
2019-03-02T06:19:23.258Z,22.87
2019-03-02T06:21:47.140Z,23.03
2019-03-02T06:24:15.538Z,21.83
2019-03-02T06:26:43.269Z,21.80
2019-03-02T06:29:10.950Z,22.67
2019-03-02T06:31:38.416Z,22.70
2019-03-02T06:34:05.977Z,22.43
2019-03-02T06:36:33.559Z,22.87
2019-03-02T06:39:03.927Z,21.67
2019-03-02T06:41:33.163Z,23.67
2019-03-02T06:44:00.173Z,24.93
2019-03-02T06:46:27.669Z,24.40
2019-03-02T06:48:55.243Z,24.70
2019-03-02T06:51:23.006Z,24.43
2019-03-02T06:53:50.690Z,26.37
2019-03-02T06:59:00.604Z,27.67
2019-03-02T07:01:26.663Z,28.90
2019-03-02T07:03:54.247Z,29.07
2019-03-02T07:06:22.062Z,28.57
2019-03-02T07:08:49.751Z,29.23
2019-03-02T07:11:17.313Z,29.33
2019-03-02T07:13:44.911Z,28.27
2019-03-02T07:16:12.456Z,30.43
2019-03-02T07:18:51.850Z,30.97
2019-03-02T07:21:19.397Z,30.03
2019-03-02T07:23:46.973Z,30.80
2019-03-02T07:26:15.859Z,29.80
2019-03-02T07:28:43.920Z,30.03
2019-03-02T07:31:11.474Z,29.83
2019-03-02T07:33:39.073Z,28.80
2019-03-02T07:36:06.635Z,27.97
2019-03-02T07:38:34.528Z,28.13
2019-03-02T07:41:02.076Z,28.00
2019-03-02T07:43:30.899Z,27.00
2019-03-02T07:45:58.760Z,27.13
2019-03-02T07:48:27.381Z,26.60
2019-03-02T07:50:54.929Z,26.73
2019-03-02T07:53:25.013Z,27.60
2019-03-02T07:55:53.627Z,26.20
2019-03-02T07:58:21.539Z,25.77
2019-03-02T08:00:49.441Z,25.30
2019-03-02T08:03:17.056Z,26.13
2019-03-02T08:05:46.915Z,25.40
2019-03-02T08:08:15.043Z,26.23
2019-03-02T08:10:42.647Z,23.37
2019-03-02T08:13:11.292Z,25.37
2019-03-02T08:15:38.861Z,24.30
2019-03-02T08:18:06.435Z,25.33
2019-03-02T08:20:34.306Z,24.90
2019-03-02T08:23:01.781Z,24.30
2019-03-02T08:25:29.372Z,22.63
2019-03-02T08:27:57.329Z,22.93
2019-03-02T08:30:25.299Z,23.00
2019-03-02T08:32:53.999Z,23.23
2019-03-02T08:35:22.840Z,23.37
2019-03-02T08:37:50.476Z,23.23
2019-03-02T08:40:19.232Z,22.80
2019-03-02T08:42:47.712Z,22.17
2019-03-02T08:45:15.528Z,23.00
2019-03-02T08:47:43.074Z,21.07
2019-03-02T08:50:13.923Z,21.87
2019-03-02T08:52:41.030Z,22.37
2019-03-02T08:55:11.951Z,20.63
2019-03-02T08:57:39.483Z,22.87
2019-03-02T09:00:09.049Z,22.37
2019-03-02T09:02:36.649Z,19.43
2019-03-02T09:05:04.525Z,19.37
2019-03-02T09:07:32.317Z,19.67
2019-03-02T09:10:00.243Z,22.17
2019-03-02T09:12:28.158Z,21.37
2019-03-02T09:14:55.792Z,18.40
2019-03-02T09:17:23.668Z,19.43
2019-03-02T09:19:51.214Z,20.83
2019-03-02T09:22:20.851Z,20.77
2019-03-02T09:24:49.095Z,20.40
2019-03-02T09:27:16.797Z,18.50
2019-03-02T09:29:44.338Z,18.13
2019-03-02T09:32:14.122Z,19.83
2019-03-02T09:34:41.687Z,20.60
2019-03-02T09:37:09.287Z,19.33
2019-03-02T09:39:38.149Z,18.73
2019-03-02T09:42:05.971Z,19.40
2019-03-02T09:44:36.252Z,17.50
2019-03-02T09:47:05.096Z,18.07
2019-03-02T09:49:33.870Z,18.03
2019-03-02T09:52:02.086Z,17.57
2019-03-02T09:54:29.606Z,17.77
2019-03-02T09:56:57.375Z,17.60
2019-03-02T09:59:24.918Z,19.43
2019-03-02T10:01:52.701Z,18.83
2019-03-02T10:04:20.843Z,18.37
2019-03-02T10:06:50.339Z,16.53
2019-03-02T10:09:17.806Z,17.70
2019-03-02T10:11:45.374Z,16.30
2019-03-02T10:14:24.726Z,13.97
2019-03-02T10:16:52.462Z,15.80
2019-03-02T10:19:20.065Z,16.00
2019-03-02T10:21:48.757Z,16.47
2019-03-02T10:24:17.167Z,15.27
2019-03-02T10:26:46.060Z,15.50
2019-03-02T10:29:13.637Z,15.37
2019-03-02T10:31:43.948Z,15.63
2019-03-02T10:34:10.872Z,15.97
2019-03-02T10:36:38.743Z,16.90
2019-03-02T10:39:06.925Z,17.80
2019-03-02T10:41:34.458Z,18.27
2019-03-02T10:44:04.410Z,19.67
2019-03-02T10:46:32.208Z,19.73
2019-03-02T10:48:59.697Z,19.73
2019-03-02T10:51:27.362Z,21.13
2019-03-02T10:53:55.816Z,20.10
2019-03-02T10:56:24.795Z,22.17
2019-03-02T10:58:53.561Z,20.40
2019-03-02T11:01:20.988Z,20.07
2019-03-02T11:03:48.816Z,20.27
2019-03-02T11:06:33.114Z,18.23
2019-03-02T11:09:32.802Z,20.10
2019-03-02T11:12:28.987Z,21.00
2019-03-02T11:15:12.952Z,22.67
2019-03-02T11:18:03.039Z,21.93
2019-03-02T11:20:50.109Z,22.53
2019-03-02T11:23:46.248Z,21.53
2019-03-02T11:26:29.416Z,20.33
2019-03-02T11:29:01.951Z,23.37
2019-03-02T11:31:46.250Z,21.47
2019-03-02T11:34:35.302Z,23.40
2019-03-02T11:37:25.644Z,21.90
2019-03-02T11:40:13.690Z,21.57
2019-03-02T11:43:00.680Z,19.77
2019-03-02T11:45:45.013Z,18.63
2019-03-02T11:48:28.521Z,18.20
2019-03-02T11:51:14.930Z,18.87
2019-03-02T11:54:01.811Z,19.13
2019-03-02T11:56:46.737Z,18.63
2019-03-02T11:59:34.122Z,18.50
2019-03-02T12:02:23.857Z,18.50
2019-03-02T12:05:12.871Z,17.20
2019-03-02T12:08:02.691Z,18.37
2019-03-02T12:10:42.997Z,16.30
2019-03-02T12:13:42.410Z,17.90
2019-03-02T12:16:29.144Z,16.90
2019-03-02T12:19:19.418Z,17.67
2019-03-02T12:21:58.775Z,18.17
2019-03-02T12:24:50.890Z,17.30
2019-03-02T12:27:38.302Z,16.10
2019-03-02T12:30:15.604Z,14.03
2019-03-02T12:33:22.132Z,16.60
2019-03-02T12:35:59.591Z,14.90
2019-03-02T12:38:44.566Z,14.67
2019-03-02T12:41:31.570Z,14.10
2019-03-02T12:44:08.420Z,14.70
2019-03-02T12:46:59.271Z,14.90
2019-03-02T12:49:59.589Z,12.83
2019-03-02T12:52:41.553Z,12.47
2019-03-02T12:55:37.785Z,12.67
2019-03-02T12:58:16.085Z,11.10
2019-03-02T13:01:01.721Z,11.27
2019-03-02T13:03:36.000Z,10.47
2019-03-02T13:06:18.164Z,10.00
2019-03-02T13:09:04.767Z,9.63
2019-03-02T13:11:54.992Z,9.87
2019-03-02T13:14:44.413Z,8.80
2019-03-02T13:17:33.124Z,10.03
2019-03-02T13:20:18.142Z,10.37
2019-03-02T13:23:08.171Z,9.93
2019-03-02T13:25:56.023Z,9.43
2019-03-02T13:28:37.033Z,9.30
2019-03-02T13:31:40.195Z,11.23
2019-03-02T13:34:23.855Z,10.13
2019-03-02T13:37:12.249Z,9.60
2019-03-02T13:39:51.201Z,11.17
2019-03-02T13:42:46.914Z,10.83
2019-03-02T13:45:55.093Z,10.40
2019-03-02T13:48:36.663Z,10.50
2019-03-02T13:51:37.434Z,11.93
2019-03-02T13:54:27.394Z,12.67
2019-03-02T13:57:12.818Z,12.23
2019-03-02T13:59:49.131Z,13.70
2019-03-02T14:02:35.196Z,13.43
2019-03-02T14:05:22.366Z,14.57
2019-03-02T14:08:12.439Z,14.20
2019-03-02T14:10:50.425Z,13.83
2019-03-02T14:13:36.146Z,13.30
2019-03-02T14:16:11.990Z,13.93
2019-03-02T14:19:05.846Z,12.93
2019-03-02T14:21:50.332Z,12.50
2019-03-02T14:24:37.690Z,11.17
2019-03-02T14:27:24.365Z,10.87
2019-03-02T14:30:06.793Z,8.60
2019-03-02T14:32:59.674Z,7.77
2019-03-02T14:35:53.192Z,7.27
2019-03-02T14:38:57.260Z,7.97
2019-03-02T14:41:41.446Z,6.10
2019-03-02T14:44:40.867Z,7.20
2019-03-02T14:47:46.043Z,7.47
2019-03-02T14:50:36.161Z,6.77
2019-03-02T14:53:26.082Z,11.53
2019-03-02T14:56:13.760Z,14.87
2019-03-02T14:59:06.192Z,14.40
2019-03-02T15:01:54.255Z,14.27
2019-03-02T15:04:53.250Z,13.90
2019-03-02T15:07:40.306Z,13.63
2019-03-02T15:10:28.336Z,13.03
2019-03-02T15:13:29.484Z,12.40
2019-03-02T15:16:16.143Z,11.50
2019-03-02T15:19:02.344Z,10.17
2019-03-02T15:21:55.646Z,9.97
2019-03-02T15:24:36.234Z,8.53
2019-03-02T15:27:20.295Z,7.90
2019-03-02T15:30:09.533Z,7.77
2019-03-02T15:32:57.580Z,8.93
2019-03-02T15:35:40.961Z,7.50
2019-03-02T15:38:20.841Z,7.53
2019-03-02T15:41:09.198Z,7.07
2019-03-02T15:43:59.671Z,5.43
2019-03-02T15:46:59.746Z,6.13
2019-03-02T15:49:44.049Z,5.27
2019-03-02T15:52:34.040Z,5.07
2019-03-02T15:55:21.118Z,6.33
2019-03-02T15:58:00.899Z,4.83
2019-03-02T16:00:59.159Z,5.40
2019-03-02T16:04:04.851Z,4.77
2019-03-02T16:06:55.127Z,4.67
2019-03-02T16:09:51.238Z,5.53
2019-03-02T16:12:50.194Z,4.10
2019-03-02T16:15:35.189Z,4.23
2019-03-02T16:18:23.669Z,4.57
2019-03-02T16:21:07.022Z,3.07
2019-03-02T16:23:48.546Z,3.63
2019-03-02T16:26:35.033Z,3.67
2019-03-02T16:29:40.141Z,3.53
2019-03-02T16:32:27.096Z,3.97
2019-03-02T16:35:11.595Z,2.77
2019-03-02T16:37:57.232Z,3.60
2019-03-02T16:40:43.159Z,3.27
2019-03-02T16:43:36.443Z,2.97
2019-03-02T16:46:17.607Z,1.80
2019-03-02T16:49:06.150Z,2.33
2019-03-02T16:51:53.345Z,2.53
2019-03-02T16:54:47.346Z,1.57
2019-03-02T16:57:41.129Z,1.37
2019-03-02T17:00:18.402Z,1.30
2019-03-02T17:03:02.913Z,1.20
2019-03-02T17:05:49.531Z,1.47
2019-03-02T17:08:36.729Z,1.23
2019-03-02T17:11:27.048Z,1.77
2019-03-02T17:14:15.055Z,1.00
2019-03-02T17:17:00.542Z,1.10
2019-03-02T17:19:37.817Z,1.30
2019-03-02T17:22:14.163Z,1.43
2019-03-02T17:24:52.014Z,1.10
2019-03-02T17:27:37.712Z,1.53
2019-03-02T17:30:34.274Z,1.93
2019-03-02T17:33:36.544Z,2.30
2019-03-02T17:36:26.381Z,1.60
2019-03-02T17:39:23.663Z,1.83
2019-03-02T17:42:15.903Z,2.40
2019-03-02T17:45:03.555Z,1.53
2019-03-02T17:48:03.347Z,1.87
2019-03-02T17:50:39.052Z,2.20
2019-03-02T17:53:15.082Z,2.00
2019-03-02T17:56:04.773Z,2.47
2019-03-02T17:59:09.121Z,1.67
2019-03-02T18:02:00.412Z,1.70
2019-03-02T18:04:53.429Z,3.60
2019-03-02T18:07:38.855Z,2.03
2019-03-02T18:10:26.689Z,2.37
2019-03-02T18:13:15.932Z,2.80
2019-03-02T18:16:06.682Z,1.63
2019-03-02T18:18:34.503Z,1.77
2019-03-02T18:21:02.136Z,1.67
2019-03-02T18:23:29.749Z,1.93
2019-03-02T18:25:57.600Z,2.17
2019-03-02T18:28:25.195Z,1.90
2019-03-02T18:30:52.887Z,2.27
2019-03-02T18:33:47.700Z,1.23
2019-03-02T18:36:15.690Z,2.17
2019-03-02T18:38:44.519Z,2.63
2019-03-02T18:41:16.701Z,2.43
2019-03-02T18:43:44.820Z,3.30
2019-03-02T18:46:16.564Z,2.93
2019-03-02T18:48:49.970Z,2.33
2019-03-02T18:51:29.690Z,1.90
2019-03-02T18:54:12.044Z,1.63
2019-03-02T18:56:40.388Z,5.33
2019-03-02T18:59:08.702Z,3.20
2019-03-02T19:01:36.601Z,2.77
2019-03-02T19:04:04.720Z,3.43
2019-03-02T19:06:32.700Z,3.30
2019-03-02T19:09:01.343Z,2.90
2019-03-02T19:11:29.086Z,3.00
2019-03-02T19:13:56.732Z,3.40
2019-03-02T19:16:24.367Z,2.73
2019-03-02T19:18:52.037Z,2.47
2019-03-02T19:21:19.962Z,2.83
2019-03-02T19:23:47.911Z,2.33
2019-03-02T19:26:15.564Z,2.57
2019-03-02T19:28:43.162Z,4.20
2019-03-02T19:31:10.798Z,3.60
2019-03-02T19:33:38.747Z,1.80
2019-03-02T19:36:07.122Z,1.63
2019-03-02T19:38:34.739Z,2.67
2019-03-02T19:41:02.812Z,2.80
2019-03-02T19:43:30.414Z,2.90
2019-03-02T19:45:58.773Z,2.60
2019-03-02T19:48:26.733Z,2.90
2019-03-02T19:50:54.388Z,1.93
2019-03-02T19:53:22.016Z,2.53
2019-03-02T19:55:49.658Z,1.83
2019-03-02T19:58:17.855Z,2.27
2019-03-02T20:00:45.429Z,2.03
2019-03-02T20:03:13.324Z,2.17
2019-03-02T20:05:40.926Z,2.90
2019-03-02T20:08:08.867Z,2.13
2019-03-02T20:10:36.570Z,2.27
2019-03-02T20:13:04.419Z,2.20
2019-03-02T20:15:32.019Z,2.17
2019-03-02T20:17:59.601Z,2.07
2019-03-02T20:20:27.806Z,2.57
2019-03-02T20:22:55.358Z,3.47
2019-03-02T20:25:23.787Z,2.58
2019-03-02T20:27:51.386Z,3.17
2019-03-02T20:30:19.020Z,3.17
2019-03-02T20:32:47.256Z,2.50
2019-03-02T20:35:15.972Z,3.27
2019-03-02T20:37:43.584Z,3.00
2019-03-02T20:40:12.229Z,1.83
2019-03-02T20:42:40.905Z,1.93
2019-03-02T20:45:09.587Z,2.03
2019-03-02T20:47:37.639Z,2.43
2019-03-02T20:50:05.632Z,2.73
2019-03-02T20:52:33.646Z,2.33
2019-03-02T20:55:01.259Z,2.30
2019-03-02T20:57:28.911Z,2.13
2019-03-02T20:59:56.511Z,2.23
2019-03-02T21:02:24.125Z,2.73
2019-03-02T21:04:51.738Z,2.93
2019-03-02T21:07:19.708Z,2.43
2019-03-02T21:09:47.333Z,2.33
2019-03-02T21:12:15.173Z,2.17
2019-03-02T21:14:42.931Z,3.10
2019-03-02T21:17:10.698Z,2.67
2019-03-02T21:19:38.688Z,2.90
2019-03-02T21:22:06.662Z,3.87
2019-03-02T21:24:34.194Z,2.90
2019-03-02T21:27:02.308Z,2.77
2019-03-02T21:29:29.938Z,2.63
2019-03-02T21:31:58.838Z,2.57
2019-03-02T21:34:26.465Z,2.93
2019-03-02T21:36:54.071Z,3.27
2019-03-02T21:39:22.103Z,2.90
2019-03-02T21:41:49.768Z,4.45
2019-03-02T21:44:17.691Z,3.67
2019-03-02T21:46:45.324Z,3.90
2019-03-02T21:49:13.081Z,3.57
2019-03-02T21:51:40.721Z,3.30
2019-03-02T21:54:08.468Z,3.67
2019-03-02T21:56:36.140Z,3.20
2019-03-02T21:59:03.745Z,3.23
2019-03-02T22:01:31.773Z,3.73
2019-03-02T22:03:59.410Z,3.40
2019-03-02T22:06:27.109Z,3.60
2019-03-02T22:08:54.706Z,3.67
2019-03-02T22:11:22.433Z,2.43
2019-03-02T22:13:50.109Z,2.37
2019-03-02T22:16:17.645Z,2.67
2019-03-02T22:18:45.261Z,3.40
2019-03-02T22:21:13.029Z,1.97
2019-03-02T22:23:40.983Z,2.20
2019-03-02T22:26:09.009Z,2.20
2019-03-02T22:28:36.639Z,2.90
2019-03-02T22:31:04.606Z,2.00
2019-03-02T22:33:32.632Z,1.97
2019-03-02T22:36:00.163Z,1.73
2019-03-02T22:38:27.769Z,1.80
2019-03-02T22:40:55.291Z,1.30
2019-03-02T22:43:23.250Z,1.43
2019-03-02T22:45:51.220Z,1.53
2019-03-02T22:48:18.850Z,1.93
2019-03-02T22:50:46.889Z,1.70
2019-03-02T22:53:14.714Z,1.70
2019-03-02T22:55:42.316Z,1.67
2019-03-02T22:58:09.957Z,1.40
2019-03-02T23:00:52.861Z,1.20
2019-03-02T23:03:20.342Z,1.70
2019-03-02T23:05:48.295Z,1.87
2019-03-02T23:08:16.279Z,1.23
2019-03-02T23:10:43.992Z,1.40
2019-03-02T23:13:11.618Z,1.27
2019-03-02T23:15:39.653Z,1.20
2019-03-02T23:18:07.687Z,1.33
2019-03-02T23:20:35.295Z,1.40
2019-03-02T23:23:02.930Z,1.60
2019-03-02T23:25:30.936Z,1.23
2019-03-02T23:27:58.867Z,1.30
2019-03-02T23:30:26.690Z,2.03
2019-03-02T23:32:54.267Z,1.33
2019-03-02T23:35:21.818Z,1.73
2019-03-02T23:37:49.813Z,1.77
2019-03-02T23:40:17.545Z,2.10
2019-03-02T23:42:45.854Z,2.00
2019-03-02T23:45:13.786Z,1.63
2019-03-02T23:47:42.514Z,1.60
2019-03-02T23:50:10.221Z,1.87
2019-03-02T23:52:37.764Z,1.87
2019-03-02T23:55:05.854Z,1.63
2019-03-02T23:57:33.470Z,2.03
